Home > Products > Valid Products > MTR

000
SAUS41 KCAR 200857
MTRGNR
METAR KGNR 200856Z AUTO 02003KT 13/11 A2998 RMK AO1 SLP151 T01280111
53004





000
SAUS41 KCAR 200816
MTR40B
METAR K40B 200816Z AUTO 00000KT 08/08 A2998 RMK AO1 SLP153
     T00800078 52005





000
SAUS41 KCAR 200757
MTRGNR
METAR KGNR 200756Z AUTO 33003KT 13/12 A2997 RMK AO1 SLP149 T01330122





000
SAUS41 KCAR 200716
MTR40B
METAR K40B 200716Z AUTO 00000KT 08/08 A2998 RMK AO1 SLP150
     T00840082 52005





000
SAUS41 KCAR 200657
MTRGNR
METAR KGNR 200656Z AUTO 00000KT 14/11 A2997 RMK AO1 SLP147 T01440111





000
SAUS41 KCAR 200616
MTR40B
METAR K40B 200616Z AUTO 00000KT 09/09 A2997 RMK AO1 SLP146
     T00920090 10154 20091 52004 60000





000
SAUS41 KCAR 200557
MTRGNR
METAR KGNR 200556Z AUTO 36004KT 15/12 A2997 RMK AO1 SLP146 T01500117
10167 20144 51005





000
SAUS41 KCAR 200516
MTR40B
METAR K40B 200516Z AUTO 00000KT 10/09 A2996 RMK AO1 SLP143
     T00960093 402370076 52006 P0000





000
SAUS41 KCAR 200457
MTRGNR
METAR KGNR 200456Z AUTO 34004KT 14/12 A2997 RMK AO1 SLP146 T01440122
402280106





000
SAUS41 KCAR 200416
MTR40B
METAR K40B 200416Z AUTO 00000KT 10/10 A2996 RMK AO1 SLP141
     T01030100 52008





000
SAUS41 KCAR 200357
MTRGNR
METAR KGNR 200356Z AUTO 00000KT 15/12 A2996 RMK AO1 SLP143 T01500117





000
SAUS41 KCAR 200316
MTR40B
METAR K40B 200316Z AUTO 00000KT 11/11 A2996 RMK AO1 SLP138
     T01130109 52011





000
SAUS41 KCAR 200257
MTRGNR
METAR KGNR 200256Z AUTO 33005KT 16/12 A2995 RMK AO1 SLP143 T01560122
51009





000
SAUS41 KCAR 200216
MTR40B
METAR K40B 200216Z AUTO 00000KT 12/11 A2995 RMK AO1 SLP133
     T01230114 52012





000
SAUS41 KCAR 200157
MTRGNR
METAR KGNR 200156Z AUTO 32004KT 16/12 A2994 RMK AO1 SLP140 T01610117





000
SAUS41 KCAR 200116
MTR40B
METAR K40B 200116Z AUTO 00000KT 14/13 A2994 RMK AO1 SLP130
     T01400126 52014





000
SAUS41 KCAR 200057
MTRGNR
METAR KGNR 200056Z AUTO 31003KT 16/12 A2994 RMK AO1 SLP138 T01610122





000
SAUS41 KCAR 200017
MTR40B
METAR K40B 200017Z AUTO 00000KT 15/13 A2993 RMK AO1 SLP126
     T01520130 10237 20152 52012





000
SAUS41 KCAR 192357
MTRGNR
METAR KGNR 192356Z AUTO 00000KT 17/13 A2992 RMK AO1 SLP134 T01670128
10228 20167 53008





000
SAUS41 KCAR 192316
MTR40B
METAR K40B 192316Z AUTO 00000KT 18/14 A2991 RMK AO1 SLP121
     T01750137 52010





000
SAUS41 KCAR 192257
MTRGNR
METAR KGNR 192256Z AUTO 00000KT 18/14 A2991 RMK AO1 SLP131 T01780139





000
SAUS41 KCAR 192216
MTR40B
METAR K40B 192216Z AUTO VRB03KT 22/10 A2989 RMK AO1 SLP117
     T02180099 52005





000
SAUS41 KCAR 192157
MTRGNR
METAR KGNR 192156Z AUTO 00000KT 19/13 A2990 RMK AO1 SLP128 T01890128





000
SAUS41 KCAR 192116
MTR40B
METAR K40B 192116Z AUTO 00000KT 22/12 A2989 RMK AO1 SLP116
     T02180122 52003





000
SAUS41 KCAR 192057
MTRGNR
METAR KGNR 192056Z AUTO 32005KT 22/11 A2990 RMK AO1 SLP124 T02220106
53003





000
SAUS41 KCAR 192016
MTR40B
METAR K40B 192016Z AUTO 00000KT 24/11 A2988 RMK AO1 SLP115
     T02350109 52002





000
SAUS41 KCAR 191957
MTRGNR
METAR KGNR 191956Z AUTO 34007KT 22/11 A2989 RMK AO1 SLP121 T02220111





000
SAUS41 KCAR 191916
MTR40B
METAR K40B 191916Z AUTO VRB03KT 23/10 A2988 RMK AO1 SLP116
     T02330100 55002





000
SAUS41 KCAR 191857
MTRGNR
METAR KGNR 191856Z AUTO 35004KT 22/11 A2989 RMK AO1 SLP121 T02220111





000
SAUS41 KCAR 191816
MTR40B
METAR K40B 191816Z AUTO VRB04KT 23/10 A2988 RMK AO1 SLP117
     T02250104 10234 20133 57003





000
SAUS41 KCAR 191757
MTRGNR
METAR KGNR 191756Z AUTO VRB06KT 22/11 A2989 RMK AO1 SLP121 T02170111
10217 20139 55004





000
SAUS41 KCAR 191716
MTR40B
METAR K40B 191716Z AUTO 00000KT 22/12 A2988 RMK AO1 SLP117
     T02170119 57006





000
SAUS41 KCAR 191657
MTRGNR
METAR KGNR 191656Z AUTO 21/12 A2989 RMK AO1 SLP121 T02110122





000
SAUS41 KCAR 191616
MTR40B
METAR K40B 191616Z AUTO VRB05KT 20/12 A2989 RMK AO1 SLP122
     T01970118 50001





000
SAUS41 KCAR 191557
MTRGNR
METAR KGNR 191556Z AUTO 34006KT 20/12 A2990 RMK AO1 SLP124 T02000117





000
SAUS41 KCAR 191516
MTR40B
METAR K40B 191516Z AUTO VRB02G12KT 20/13 A2989 RMK AO1 SLP123
     T02010133 50001





000
SAUS41 KCAR 191457
MTRGNR
METAR KGNR 191456Z AUTO 34009KT 19/12 A2990 RMK AO1 SLP126 T01890122
52005





000
SAUS41 KCAR 191416
MTR40B
METAR K40B 191416Z AUTO VRB04KT 18/11 A2989 RMK AO1 SLP126
     T01810114 52006





000
SAUS41 KCAR 191357
MTRGNR
METAR KGNR 191356Z AUTO 33007KT 290V350 17/12 A2990 RMK AO1 SLP126
T01720122





000
SAUS41 KCAR 191316
MTR40B
METAR K40B 191316Z AUTO VRB03KT 17/12 A2989 RMK AO1 SLP124
     T01690118 51007





000
SAUS41 KCAR 191257
MTRGNR
METAR KGNR 191256Z AUTO 33006KT 16/11 A2989 RMK AO1 SLP123 T01560111





000
SAUS41 KCAR 191216
MTR40B
METAR K40B 191216Z AUTO VRB04KT 13/10 A2988 RMK AO1 SLP123
     T01330105 10137 20076 52009 60001 70001





000
SAUS41 KCAR 191157
MTRGNR
METAR KGNR 191156Z AUTO 34004KT 14/11 A2989 RMK AO1 SLP123 70003
T01390106 10139 20106 51011





000
SAUS41 KCAR 191116
MTR40B
METAR K40B 191116Z AUTO 00000KT 11/10 A2988 RMK AO1 SLP120
     T01140104 52011 P0001





000
SAUS41 KCAR 191057
MTRGNR
METAR KGNR 191056Z AUTO 03004KT 12/11 A2988 RMK AO1 SLP120 T01220106





000
SAUS41 KCAR 191016
MTR40B
METAR K40B 191016Z AUTO 00000KT 08/08 A2986 RMK AO1 SLP115
     T00800078 52009





000
SAUS41 KCAR 190957
MTRGNR
METAR KGNR 190956Z AUTO 02005KT 11/09 A2987 RMK AO1 SLP117 T01060094





000
SAUS41 KCAR 190916
MTR40B
METAR K40B 190916Z AUTO 00000KT 09/09 A2986 RMK AO1 SLP111
     T00930091 52010





000
SAUS41 KCAR 190857
MTRGNR
METAR KGNR 190856Z AUTO 02005KT 11/09 A2985 RMK AO1 SLP110 T01110094
51006





000
SAUS41 KCAR 190816
MTR40B
METAR K40B 190816Z AUTO 00000KT 10/09 A2984 RMK AO1 SLP106
     T00970094 52005





000
SAUS41 KCAR 190757
MTRGNR
METAR KGNR 190756Z AUTO 01003KT 12/09 A2984 RMK AO1 SLP108 T01170094





000
SAUS41 KCAR 190716
MTR40B
METAR K40B 190716Z AUTO 00000KT 10/10 A2984 RMK AO1 SLP103
     T01010098 53002





000
SAUS41 KCAR 190657
MTRGNR
METAR KGNR 190656Z AUTO 06003KT 12/10 A2984 RMK AO1 SLP108 T01220100





000
SAUS41 KCAR 190616
MTR40B
METAR K40B 190616Z AUTO 00000KT 10/10 A2982 RMK AO1 SLP098
     T01040101 10154 20103 54001 60000





000
SAUS41 KCAR 190557
MTRGNR
METAR KGNR 190556Z AUTO 06003KT 12/10 A2983 RMK AO1 SLP105 T01170100
10139 20117 58002





000
SAUS41 KCAR 190516
MTR40B
METAR K40B 190516Z AUTO VRB02KT 11/11 A2983 RMK AO1 SLP098
     T01080106 402110107 57003





000
SAUS41 KCAR 190457
MTRGNR
METAR KGNR 190456Z AUTO 34004KT 12/10 A2984 RMK AO1 SLP106 T01170100
401830117





000
SAUS41 KCAR 190416
MTR40B
METAR K40B 190416Z AUTO VRB02KT 11/11 A2983 RMK AO1 SLP098
     T01110108 57002





000
SAUS41 KCAR 190357
MTRGNR
METAR KGNR 190356Z AUTO 33007KT 12/11 A2984 RMK AO1 SLP107 T01220106





000
SAUS41 KCAR 190316
MTR40B
METAR K40B 190316Z AUTO 00000KT 12/11 A2983 RMK AO1 SLP096
     T01160111 50002 P0000 60000





000
SAUS41 KCAR 190257
MTRGNR
METAR KGNR 190256Z AUTO VRB06KT 12/11 A2984 RMK AO1 SLP108 T01220106
51007





000
SAUS41 KCAR 190216
MTR40B
METAR K40B 190216Z AUTO 00000KT 12/12 A2984 RMK AO1 SLP099
     T01230116 51013





000
SAUS41 KCAR 190157
MTRGNR
METAR KGNR 190156Z AUTO 32007KT 13/11 A2984 RMK AO1 SLP108 T01280111





000
SAUS41 KCAR 190116
MTR40B
METAR K40B 190116Z AUTO VRB02KT 14/12 A2984 RMK AO1 SLP098
     T01400121 52019





000
SAUS41 KCAR 190057
MTRGNR
METAR KGNR 190056Z AUTO VRB06KT 13/11 A2984 RMK AO1 SLP107 T01330111





000
SAUS41 KCAR 190019
MTR40B
METAR K40B 190019Z AUTO 00000KT 15/13 A2982 RMK AO1 SLP093
     T01520128 10211 20152 53013





000
SAUS41 KCAR 182357
MTRGNR
METAR KGNR 182356Z AUTO VRB06KT 14/11 A2982 RMK AO1 SLP101 T01390106
10183 20139 53011





000
SAUS41 KCAR 182316
MTR40B
METAR K40B 182316Z AUTO 00000KT 17/12 A2980 RMK AO1 SLP085
     T01700122 52011





000
SAUS41 KCAR 182257
MTRGNR
METAR KGNR 182256Z AUTO VRB06KT 15/11 A2980 RMK AO1 SLP093 T01500106





000
SAUS41 KCAR 182216
MTR40B
METAR K40B 182216Z AUTO 00000KT 18/14 A2978 RMK AO1 SLP080
     T01820135 52004





000
SAUS41 KCAR 182157
MTRGNR
METAR KGNR 182156Z AUTO 31007KT 270V350 16/11 A2979 RMK AO1 SLP089
T01610111





000
SAUS41 KCAR 182116
MTR40B
METAR K40B 182116Z AUTO VRB03KT 18/13 A2978 RMK AO1 SLP080
     T01820125 52007





000
SAUS41 KCAR 182057
MTRGNR
METAR KGNR 182056Z AUTO VRB05KT 17/12 A2978 RMK AO1 SLP086 T01720117
52003





000
SAUS41 KCAR 182016
MTR40B
METAR K40B 182016Z AUTO VRB04KT 21/12 A2976 RMK AO1 SLP076
     T02100118 54000





000
SAUS41 KCAR 181957
MTRGNR
METAR KGNR 181956Z AUTO 32010G16KT 18/12 A2978 RMK AO1 SLP084
T01780117





000
SAUS41 KCAR 181916
MTR40B
METAR K40B 181916Z AUTO VRB03G12KT 19/12 A2977 RMK AO1 SLP078
     T01870117 55003





000
SAUS41 KCAR 181857
MTRGNR
METAR KGNR 181856Z AUTO 33012G19KT 17/11 A2978 RMK AO1 SLP086
T01720111





000
SAUS41 KCAR 181816
MTR40B
METAR K40B 181816Z AUTO VRB03KT 20/11 A2976 RMK AO1 SLP076
     T01970114 10207 20137 58005





000
SAUS41 KCAR 181757
MTRGNR
METAR KGNR 181756Z AUTO 33010G17KT 16/11 A2978 RMK AO1 SLP084 60003
T01610111 10167 20122 50001





000
SAUS41 KCAR 181716
MTR40B
METAR K40B 181716Z AUTO VRB02G12KT 20/13 A2976 RMK AO1 SLP079
     T01960130 58005





000
SAUS41 KCAR 181657
MTRGNR
METAR KGNR 181656Z AUTO 33009G19KT 290V360 16/11 A2978 RMK AO1
SLP085 T01560111





000
SAUS41 KCAR 181616
MTR40B
METAR K40B 181616Z AUTO VRB04G11KT 17/13 A2977 RMK AO1 SLP083
     T01750126 57002





000
SAUS41 KCAR 181557
MTRGNR
METAR KGNR 181556Z AUTO VRB06KT 14/11 A2978 RMK AO1 SLP086 T01440111





000
SAUS41 KCAR 181516
MTR40B
METAR K40B 181516Z AUTO VRB04G10KT 17/12 A2977 RMK AO1 SLP084
     T01670120 54000





000
SAUS41 KCAR 181457
MTRGNR
METAR KGNR 181456Z AUTO 32009G19KT 280V360 14/12 A2977 RMK AO1
SLP083 60003 T01440117 51003





000
SAUS41 KCAR 181416
MTR40B
METAR K40B 181416Z AUTO VRB05KT 16/12 A2978 RMK AO1 SLP085
     T01580116 51005





000
SAUS41 KCAR 181357
MTRGNR
METAR KGNR 181356Z AUTO VRB04KT 13/12 A2977 RMK AO1 SLP083 T01330117





000
SAUS41 KCAR 181316
MTR40B
METAR K40B 181316Z AUTO VRB05G12KT 14/12 A2978 RMK AO1 SLP086
     T01450116 52009





000
SAUS41 KCAR 181258
MTRGNR
METAR KGNR 181256Z AUTO 33009G16KT 13/12 A2977 RMK AO1 SLP083 P0003
T01280117





000
SAUS41 KCAR 181216
MTR40B
METAR K40B 181216Z AUTO 00000KT 14/13 A2977 RMK AO1 SLP084
     T01380126 10137 20118 52014





000
SAUS41 KCAR 181157
MTRGNR
METAR KGNR 181156Z AUTO 32009G15KT 12/12 A2976 RMK AO1 SLP082 P0006
60011 70026 T01220117 10139 20122 51017





000
SAUS41 KCAR 181116
MTR40B
METAR K40B 181116Z AUTO 00000KT 13/12 A2976 RMK AO1 SLP080
     T01270121 52014





000
SAUS41 KCAR 181057
MTRGNR
METAR KGNR 181056Z AUTO VRB06KT 13/12 A2975 RMK AO1 SLP075 T01280117





000
SAUS41 KCAR 181016
MTR40B
METAR K40B 181016Z AUTO 00000KT 12/12 A2975 RMK AO1 SLP076
     T01230119 53011





000
SAUS41 KCAR 180957
MTRGNR
METAR KGNR 180956Z AUTO VRB05KT 13/12 A2973 RMK AO1 SLP069 T01280122





000
SAUS41 KCAR 180916
MTR40B
METAR K40B 180916Z AUTO 00000KT 12/12 A2973 RMK AO1 SLP069
     T01230122 53002





000
SAUS41 KCAR 180857
MTRGNR
METAR KGNR 180856Z AUTO VRB04KT 13/13 A2971 RMK AO1 SLP062 P0004
60005 T01330128 58003





000
SAUS41 KCAR 180816
MTR40B
METAR K40B 180816Z AUTO 00000KT 12/12 A2972 RMK AO1 SLP064
     T01200118 57002





000
SAUS41 KCAR 180757
MTRGNR
METAR KGNR 180756Z AUTO VRB06KT 13/13 A2971 RMK AO1 SLP063 P0001
T01330128





000
SAUS41 KCAR 180716
MTR40B
METAR K40B 180716Z AUTO 00000KT 12/12 A2972 RMK AO1 SLP063
     T01240122 57004





000
SAUS41 KCAR 180657
MTRGNR
METAR KGNR 180656Z AUTO VRB03KT 13/13 A2972 RMK AO1 SLP065 T01330128





000
SAUS41 KCAR 180616
MTR40B
METAR K40B 180616Z AUTO 00000KT 12/12 A2973 RMK AO1 SLP065
     T01220120 10143 20111 57005





000
SAUS41 KCAR 180557
MTRGNR
METAR KGNR 180556Z AUTO VRB05KT 14/13 A2972 RMK AO1 SLP065 60005
T01390128 10144 20133 58010





000
SAUS41 KCAR 180516
MTR40B
METAR K40B 180516Z AUTO 00000KT 12/11 A2973 RMK AO1 SLP065
     T01160114 401930111 57006





000
SAUS41 KCAR 180457
MTRGNR
METAR KGNR 180456Z AUTO 00000KT 14/13 A2973 RMK AO1 SLP070 T01390128
401670117





000
SAUS41 KCAR 180416
MTR40B
METAR K40B 180416Z AUTO 00000KT 12/12 A2973 RMK AO1 SLP066
     T01190117 57008





000
SAUS41 KCAR 180357
MTRGNR
METAR KGNR 180356Z AUTO 32003KT 13/13 A2974 RMK AO1 SLP074 T01330128





000
SAUS41 KCAR 180316
MTR40B
METAR K40B 180316Z AUTO 00000KT 12/12 A2974 RMK AO1 SLP068
     T01190117 58003





000
SAUS41 KCAR 180257
MTRGNR
METAR KGNR 180256Z AUTO 32006KT 14/13 A2975 RMK AO1 SLP076 60005
T01390128 58002





000
SAUS41 KCAR 180216
MTR40B
METAR K40B 180216Z AUTO 00000KT 13/12 A2975 RMK AO1 SLP070
     T01270124 50001





000
SAUS41 KCAR 180157
MTRGNR
METAR KGNR 180156Z AUTO VRB04KT 14/13 A2976 RMK AO1 SLP079 P0005
T01440133





000
SAUS41 KCAR 180116
MTR40B
METAR K40B 180116Z AUTO 00000KT 14/14 A2976 RMK AO1 SLP073
     T01420138 52004





000
SAUS41 KCAR 180057
MTRGNR
METAR KGNR 180056Z AUTO 00000KT 13/13 A2976 RMK AO1 SLP081 T01330128





000
SAUS41 KCAR 180017
MTR40B
METAR K40B 180017Z AUTO 00000KT 14/13 A2975 RMK AO1 SLP071
     T01400134 10193 20140 54001





000
SAUS41 KCAR 172316
MTR40B
METAR K40B 172316Z AUTO 00000KT 16/14 A2975 RMK AO1 SLP071
     T01560144 54001





000
SAUS41 KCAR 172257
MTRGNR
METAR KGNR 172256Z AUTO 34005KT 16/14 A2975 RMK AO1 SLP077 T01560139





000
SAUS41 KCAR 172216
MTR40B
METAR K40B 172216Z AUTO 00000KT 18/12 A2975 RMK AO1 SLP070
     T01840122 57007





000
SAUS41 KCAR 172157
MTRGNR
METAR KGNR 172156Z AUTO 32004KT 16/14 A2975 RMK AO1 SLP075 T01610139





000
SAUS41 KCAR 172116
MTR40B
METAR K40B 172116Z AUTO VRB02KT 18/12 A2975 RMK AO1 SLP072
     T01780124 57008





000
SAUS41 KCAR 172058
MTRGNR
METAR KGNR 172056Z AUTO 32005KT 16/14 A2975 RMK AO1 SLP076 60002
T01560144 56005





000
SAUS41 KCAR 172016
MTR40B
METAR K40B 172016Z AUTO VRB03KT 19/13 A2975 RMK AO1 SLP074
     T01870126 58009





000
SAUS41 KCAR 171957
MTRGNR
METAR KGNR 171956Z AUTO VRB04KT 16/14 A2975 RMK AO1 SLP076 P0002
T01560144





000
SAUS41 KCAR 171916
MTR40B
METAR K40B 171916Z AUTO 00000KT 17/12 A2977 RMK AO1 SLP079
     T01680115 57008





000
SAUS41 KCAR 171857
MTRGNR
METAR KGNR 171856Z AUTO 00000KT 17/14 A2975 RMK AO1 SLP076 T01670139





000
SAUS41 KCAR 171816
MTR40B
METAR K40B 171816Z AUTO 00000KT 17/12 A2977 RMK AO1 SLP082
     T01720122 10172 20129 57009





000
SAUS41 KCAR 171757
MTRGNR
METAR KGNR 171756Z AUTO 00000KT 15/14 A2976 RMK AO1 SLP081 P0001
60008 T01500139 10150 20128 58007





000
SAUS41 KCAR 171716
MTR40B
METAR K40B 171716Z AUTO 00000KT 16/12 A2978 RMK AO1 SLP085
     T01570124 57008





000
SAUS41 KCAR 171657
MTRGNR
METAR KGNR 171656Z AUTO 00000KT 14/13 A2977 RMK AO1 SLP085 T01390133





000
SAUS41 KCAR 171616
MTR40B
METAR K40B 171616Z AUTO VRB02KT 15/12 A2979 RMK AO1 SLP089
     T01500124 57006





000
SAUS41 KCAR 171557
MTRGNR
METAR KGNR 171556Z AUTO 00000KT 14/13 A2978 RMK AO1 SLP088 P0002
T01390133





000
SAUS41 KCAR 171516
MTR40B
METAR K40B 171516Z AUTO VRB04KT 14/13 A2980 RMK AO1 SLP092
     T01420128 57006





000
SAUS41 KCAR 171457
MTRGNR
METAR KGNR 171456Z AUTO VRB04KT 13/12 A2979 RMK AO1 SLP089 P0003
60005 T01330122 56007





000
SAUS41 KCAR 171416
MTR40B
METAR K40B 171416Z AUTO VRB03KT 14/13 A2981 RMK AO1 SLP094
     T01380126 57005





000
SAUS41 KCAR 171357
MTRGNR
METAR KGNR 171356Z AUTO 00000KT 13/12 A2979 RMK AO1 SLP091 P0001
T01330122





000
SAUS41 KCAR 171316
MTR40B
METAR K40B 171316Z AUTO VRB02KT 14/13 A2981 RMK AO1 SLP096
     T01410131 57004





000
SAUS41 KCAR 171257
MTRGNR
METAR KGNR 171256Z AUTO VRB03KT 13/12 A2980 RMK AO1 SLP093 P0001
T01280122





000
SAUS41 KCAR 171216
MTR40B
METAR K40B 171216Z AUTO 00000KT 13/13 A2982 RMK AO1 SLP098
     T01300126 10130 20120 57002 60002 70010





000
SAUS41 KCAR 171157
MTRGNR
METAR KGNR 171156Z AUTO VRB03KT 13/12 A2981 RMK AO1 SLP096 60003
70009 T01280122 10128 20117 58002





000
SAUS41 KCAR 171116
MTR40B
METAR K40B 171116Z AUTO 00000KT 12/12 A2982 RMK AO1 SLP099
     T01230120 57003





000
SAUS41 KCAR 171057
MTRGNR
METAR KGNR 171056Z AUTO 13003KT 12/12 A2981 RMK AO1 SLP096 T01220117





000
SAUS41 KCAR 171016
MTR40B
METAR K40B 171016Z AUTO 00000KT 12/12 A2982 RMK AO1 SLP099
     T01200117 56008





000
SAUS41 KCAR 170957
MTRGNR
METAR KGNR 170956Z AUTO 11004KT 12/11 A2981 RMK AO1 SLP098 T01220111





000
SAUS41 KCAR 170916
MTR40B
METAR K40B 170916Z AUTO 00000KT 12/12 A2982 RMK AO1 SLP100
     T01240118 58006 P0001 60002





    US Dept of Commerce
    National Oceanic and Atmospheric Administration
    National Weather Service
    1325 East West Highway
    Silver Spring, MD 20910
    Page Author: NWS Internet Services Team
Disclaimer
Information Quality
Credits
Glossary
Privacy Policy
Freedom of Information Act (FOIA)
About Us
Career Opportunities